Terminal Aerodrome Forecast
Issued by NWS

Home | Current Version | Previous Version | Text Only | Print | Product List | Glossary On
Versions: 1 2 3 4 5 6 7 8 9 10 11 12 13 14 15 16 17 18 19
000
FTUS46 KLOX 282056 AAA
TAFLGB
TAF AMD
KLGB 282056Z 2821/2918 20008KT P6SM SKC
     FM282300 30010KT P6SM SKC
     FM290300 VRB03KT P6SM SKC
     FM290500 VRB03KT P6SM OVC010
     FM291700 VRB03KT P6SM SCT015=

USA.gov is the U.S. government's official web portal to all federal, state and local government web resources and services.